Time;durP1;ratioP1;P1;durP2;ratioP2;P2;SDS_P1;SDS_P2;PMS_P1;PMS_P2;Temp;Humidity;BMP_temperature;BMP_pressure;BME280_temperature;BME280_humidity;BME280_pressure;Samples;Min_cycle;Max_cycle;Signal;HPM_P1;HPM_P2
2022/01/09 00:00:57;;;;;;;3.70;2.72;;;;;;;-12.33;65.50;100613.91;4865950;29;20053;-82
2022/01/09 00:03:23;;;;;;;3.95;2.80;;;;;;;-12.34;65.37;100622.44;4888405;29;20196;-79
2022/01/09 00:05:49;;;;;;;3.83;2.75;;;;;;;-12.36;65.57;100618.94;4876184;29;20553;-80
2022/01/09 00:08:15;;;;;;;3.38;2.63;;;;;;;-12.46;65.38;100606.59;4883423;29;20266;-82
2022/01/09 00:10:46;;;;;;;4.07;3.60;;;;;;;-12.43;65.37;100619.56;4870275;29;20187;-80
2022/01/09 00:13:13;;;;;;;4.18;2.47;;;;;;;-12.43;65.59;100617.00;4883356;29;20559;-80
2022/01/09 00:15:39;;;;;;;4.18;2.85;;;;;;;-12.52;65.36;100600.41;4881414;29;20110;-80
2022/01/09 00:18:05;;;;;;;3.42;2.83;;;;;;;-12.46;65.17;100617.75;4881164;29;20055;-80
2022/01/09 00:20:31;;;;;;;3.40;2.60;;;;;;;-12.51;65.57;100625.34;4893791;29;20053;-80
2022/01/09 00:22:57;;;;;;;6.18;2.95;;;;;;;-12.49;65.35;100639.13;4899601;29;20143;-80
2022/01/09 00:25:23;;;;;;;4.32;2.50;;;;;;;-12.51;65.55;100634.78;4899895;29;20048;-82
2022/01/09 00:27:50;;;;;;;4.32;2.83;;;;;;;-12.55;65.20;100633.78;4884265;29;20061;-81
2022/01/09 00:30:17;;;;;;;6.05;2.95;;;;;;;-12.65;65.59;100639.44;4915700;29;20048;-80
2022/01/09 00:32:43;;;;;;;5.38;2.88;;;;;;;-12.72;65.48;100629.75;4883952;29;20131;-81
2022/01/09 00:35:10;;;;;;;3.58;2.65;;;;;;;-12.72;65.99;100640.94;4915291;29;20140;-81
2022/01/09 00:37:36;;;;;;;3.67;2.50;;;;;;;-12.75;65.49;100643.44;4899881;29;20044;-80
2022/01/09 00:40:08;;;;;;;2.22;2.00;;;;;;;-12.89;65.67;100636.06;4927709;29;20082;-80
2022/01/09 00:42:35;;;;;;;4.68;2.95;;;;;;;-12.99;65.84;100645.13;4901921;29;20563;-79
2022/01/09 00:45:01;;;;;;;4.13;2.85;;;;;;;-12.98;65.97;100641.72;4902497;29;20080;-79
2022/01/09 00:47:28;;;;;;;3.22;2.65;;;;;;;-12.98;65.92;100649.44;4887012;29;20645;-80
2022/01/09 00:49:54;;;;;;;4.03;2.50;;;;;;;-13.05;66.08;100645.81;4917984;29;20159;-83
2022/01/09 00:52:20;;;;;;;3.20;2.47;;;;;;;-12.92;66.02;100671.97;4919202;29;20047;-79
2022/01/09 00:54:46;;;;;;;3.33;2.47;;;;;;;-12.93;65.82;100667.66;4919128;29;20067;-79
2022/01/09 00:57:15;;;;;;;2.72;2.35;;;;;;;-12.98;65.86;100659.75;4902341;29;20047;-79
2022/01/09 00:59:41;;;;;;;5.47;3.50;;;;;;;-13.09;65.81;100679.94;4886513;29;20044;-80
2022/01/09 01:02:07;;;;;;;2.95;2.65;;;;;;;-13.19;65.91;100671.88;4919208;29;20500;-79
2022/01/09 01:04:33;;;;;;;4.30;2.97;;;;;;;-13.37;66.09;100661.81;4917532;29;20127;-80
2022/01/09 01:06:59;;;;;;;3.58;2.80;;;;;;;-13.26;66.30;100697.38;4918085;29;20055;-80
2022/01/09 01:09:29;;;;;;;4.32;2.85;;;;;;;-13.26;66.49;100705.09;4902286;29;20412;-80
2022/01/09 01:11:55;;;;;;;5.15;3.00;;;;;;;-13.28;66.05;100704.16;4902096;29;20043;-81
2022/01/09 01:14:23;;;;;;;8.57;2.60;;;;;;;-13.29;66.52;100706.69;4933637;29;20139;-81
2022/01/09 01:16:49;;;;;;;4.15;2.65;;;;;;;-13.19;66.66;100708.75;4886348;29;20048;-80
2022/01/09 01:19:16;;;;;;;4.97;2.90;;;;;;;-13.24;66.58;100705.16;4902155;29;20056;-81
2022/01/09 01:21:42;;;;;;;3.05;2.78;;;;;;;-13.17;66.84;100719.09;4886649;29;20048;-81
2022/01/09 01:24:08;;;;;;;3.60;2.40;;;;;;;-13.13;66.75;100726.97;4902856;29;20123;-83
2022/01/09 01:26:34;;;;;;;3.78;2.78;;;;;;;-13.17;66.70;100730.25;4901957;29;20052;-81
2022/01/09 01:29:00;;;;;;;5.28;2.92;;;;;;;-13.18;66.85;100735.38;4886356;29;20044;-82
2022/01/09 01:31:26;;;;;;;3.83;2.47;;;;;;;-13.15;67.13;100725.19;4917384;29;20048;-82
2022/01/09 01:33:52;;;;;;;5.10;2.90;;;;;;;-13.12;66.80;100731.31;4918968;29;20517;-80
2022/01/09 01:36:18;;;;;;;8.75;2.72;;;;;;;-13.08;66.91;100733.19;4902029;29;20073;-80
2022/01/09 01:38:44;;;;;;;4.35;2.70;;;;;;;-13.14;66.22;100738.09;4901172;29;20067;-80
2022/01/09 01:41:10;;;;;;;3.90;2.85;;;;;;;-13.24;66.18;100747.22;4885781;29;20411;-80
2022/01/09 01:43:36;;;;;;;4.65;2.78;;;;;;;-13.39;65.96;100750.88;4917494;29;20134;-81
2022/01/09 01:46:02;;;;;;;4.13;2.90;;;;;;;-13.33;65.62;100771.69;4901491;29;20071;-81
2022/01/09 01:48:29;;;;;;;5.30;2.55;;;;;;;-13.47;65.63;100778.88;4917354;29;20138;-80
2022/01/09 01:50:55;;;;;;;4.57;2.80;;;;;;;-13.60;65.08;100780.09;4905843;29;20045;-81
2022/01/09 01:53:22;;;;;;;2.33;2.13;;;;;;;-13.91;65.32;100772.84;4882770;29;20044;-81
2022/01/09 01:55:53;;;;;;;3.20;2.47;;;;;;;-14.01;65.03;100789.56;4913947;29;20041;-81
2022/01/09 01:58:19;;;;;;;3.13;2.35;;;;;;;-14.06;65.46;100803.94;4913318;29;20082;-81
2022/01/09 02:00:45;;;;;;;5.72;2.80;;;;;;;-14.16;65.10;100803.47;4913913;29;20053;-81
2022/01/09 02:03:11;;;;;;;1.80;1.70;;;;;;;-14.36;65.26;100794.94;4913726;29;20576;-81
2022/01/09 02:05:37;;;;;;;1.90;1.73;;;;;;;-14.42;65.16;100810.06;4898366;29;20143;-82
2022/01/09 02:08:03;;;;;;;4.47;3.00;;;;;;;-14.46;65.64;100815.06;4882471;29;20410;-81
2022/01/09 02:10:29;;;;;;;3.88;2.30;;;;;;;-14.60;65.82;100808.47;4882197;29;20059;-82
2022/01/09 02:12:57;;;;;;;6.95;2.88;;;;;;;-14.65;65.78;100807.38;4914105;29;20040;-81
2022/01/09 02:15:43;;;;;;;6.07;3.20;;;;;;;-14.60;65.93;100810.16;4881519;29;20045;-80
2022/01/09 02:18:14;;;;;;;3.33;2.65;;;;;;;-14.59;65.96;100812.81;4913331;29;20140;-81
2022/01/09 02:20:41;;;;;;;5.68;2.50;;;;;;;-14.62;65.98;100817.81;4866695;29;20063;-80
2022/01/09 02:23:08;;;;;;;4.22;2.70;;;;;;;-14.58;66.03;100819.69;4913662;29;20482;-81
2022/01/09 02:25:34;;;;;;;3.67;2.67;;;;;;;-14.56;65.87;100825.75;4897181;29;20059;-80
2022/01/09 02:28:01;;;;;;;2.83;2.00;;;;;;;-14.61;66.24;100834.94;4897382;29;20512;-80
2022/01/09 02:30:27;;;;;;;2.58;1.98;;;;;;;-14.61;65.81;100832.38;4897639;29;20037;-81
2022/01/09 02:32:53;;;;;;;3.83;2.88;;;;;;;-14.64;65.81;100839.94;4897563;29;20048;-80
2022/01/09 02:35:23;;;;;;;4.40;2.67;;;;;;;-14.74;65.70;100837.75;4912896;29;20064;-81
2022/01/09 02:37:49;;;;;;;3.90;2.53;;;;;;;-14.80;66.07;100842.63;4897519;29;20044;-81
2022/01/09 02:40:15;;;;;;;10.90;2.60;;;;;;;-14.84;65.77;100836.50;4897091;29;20156;-81
2022/01/09 02:42:41;;;;;;;4.13;2.65;;;;;;;-14.80;65.85;100847.78;4897296;29;20057;-80
2022/01/09 02:45:07;;;;;;;4.20;2.78;;;;;;;-14.81;65.79;100848.59;4881672;29;20071;-80
2022/01/09 02:47:34;;;;;;;4.03;2.85;;;;;;;-14.81;65.91;100852.03;4881379;29;20096;-80
2022/01/09 02:50:11;;;;;;;6.10;3.55;;;;;;;-14.89;65.84;100842.19;4898308;29;20068;-80
2022/01/09 02:52:48;;;;;;;6.88;3.08;;;;;;;-14.87;65.97;100866.25;4880594;29;20056;-79
2022/01/09 02:55:15;;;;;;;4.45;2.97;;;;;;;-14.88;65.91;100860.25;4911893;29;20052;-81
2022/01/09 02:57:41;;;;;;;2.83;2.33;;;;;;;-14.89;65.68;100862.72;4897246;29;20519;-80
2022/01/09 03:00:09;;;;;;;4.13;2.53;;;;;;;-14.92;66.30;100860.91;4896853;29;20040;-80
2022/01/09 03:02:35;;;;;;;3.03;2.25;;;;;;;-14.96;65.67;100862.47;4896880;29;20136;-79
2022/01/09 03:05:01;;;;;;;2.42;2.15;;;;;;;-15.02;65.89;100864.75;4896949;29;20465;-79
2022/01/09 03:07:27;;;;;;;4.70;2.75;;;;;;;-15.01;66.35;100878.44;4896970;29;20135;-79
2022/01/09 03:09:53;;;;;;;5.95;3.25;;;;;;;-15.00;66.02;100873.41;4881388;29;20063;-80
2022/01/09 03:12:19;;;;;;;3.42;2.17;;;;;;;-14.97;65.80;100878.69;4881644;29;20086;-82
2022/01/09 03:14:46;;;;;;;4.47;2.90;;;;;;;-15.00;66.42;100880.22;4881662;29;20051;-82
2022/01/09 03:17:12;;;;;;;2.85;2.50;;;;;;;-15.00;66.05;100891.34;4881145;29;20049;-81
2022/01/09 03:19:38;;;;;;;3.92;2.28;;;;;;;-15.02;65.69;100886.94;4881175;29;20075;-81
2022/01/09 03:22:04;;;;;;;1.90;1.75;;;;;;;-15.04;66.06;100884.31;4898092;29;20556;-80
2022/01/09 03:24:30;;;;;;;4.90;2.55;;;;;;;-15.09;65.80;100890.03;4896872;29;20079;-80
2022/01/09 03:26:56;;;;;;;2.78;2.40;;;;;;;-15.15;66.01;100885.50;4896488;29;20087;-80
2022/01/09 03:29:22;;;;;;;3.95;2.63;;;;;;;-15.15;65.67;100895.75;4896830;29;20128;-80
2022/01/09 03:31:48;;;;;;;6.13;3.05;;;;;;;-15.16;65.87;100900.78;4896628;29;20157;-81
2022/01/09 03:34:14;;;;;;;5.07;2.78;;;;;;;-15.23;65.91;100909.88;4912802;29;20049;-81
2022/01/09 03:36:40;;;;;;;4.78;3.05;;;;;;;-15.29;65.64;100917.28;4897394;29;20144;-82
2022/01/09 03:39:06;;;;;;;5.70;3.28;;;;;;;-15.34;65.74;100914.50;4898730;29;20125;-79
2022/01/09 03:41:31;;;;;;;7.63;2.38;;;;;;;-15.35;65.64;100923.00;4899520;29;20131;-80
2022/01/09 03:43:57;;;;;;;3.80;2.47;;;;;;;-15.41;65.93;100924.41;4917053;29;20072;-80
2022/01/09 03:46:23;;;;;;;3.53;1.95;;;;;;;-15.40;66.17;100932.16;4902403;29;20044;-81
2022/01/09 03:48:49;;;;;;;5.85;2.38;;;;;;;-15.44;66.04;100938.81;4901238;29;20076;-82
2022/01/09 03:51:15;;;;;;;2.85;2.60;;;;;;;-15.45;66.13;100928.50;4896856;29;20412;-80
2022/01/09 03:53:41;;;;;;;17.85;3.75;;;;;;;-15.50;65.94;100935.94;4912672;29;20053;-81
2022/01/09 03:56:07;;;;;;;4.93;2.67;;;;;;;-15.46;65.94;100948.09;4912384;29;20057;-82
2022/01/09 03:58:35;;;;;;;3.17;2.42;;;;;;;-15.48;65.57;100948.84;4865496;29;20488;-81
2022/01/09 04:01:03;;;;;;;3.95;2.65;;;;;;;-15.50;65.86;100958.13;4911225;29;20044;-82
2022/01/09 04:03:29;;;;;;;2.88;2.58;;;;;;;-15.50;65.67;100953.00;4912003;29;20055;-79
2022/01/09 04:06:00;;;;;;;3.17;2.85;;;;;;;-15.55;65.90;100952.78;4881501;29;20053;-79
2022/01/09 04:08:26;;;;;;;5.75;3.03;;;;;;;-15.54;65.60;100946.84;4897246;29;20040;-80
2022/01/09 04:10:52;;;;;;;7.05;2.40;;;;;;;-15.49;65.50;100960.78;4896462;29;20086;-80
2022/01/09 04:13:18;;;;;;;3.20;2.90;;;;;;;-15.54;65.46;100972.47;4911711;29;20151;-81
2022/01/09 04:15:47;;;;;;;5.38;2.90;;;;;;;-15.63;65.79;100974.56;4881227;29;20540;-80
2022/01/09 04:18:18;;;;;;;1.50;1.40;;;;;;;-15.72;66.01;100974.13;4912527;29;20052;-84
2022/01/09 04:20:44;;;;;;;4.20;3.13;;;;;;;-15.72;66.27;100986.94;4912652;29;20056;-78
2022/01/09 04:23:11;;;;;;;2.28;2.15;;;;;;;-15.78;65.75;100972.16;4897335;29;20143;-79
2022/01/09 04:25:39;;;;;;;3.10;2.38;;;;;;;-15.78;65.86;100973.84;4896643;29;20500;-79
2022/01/09 04:28:05;;;;;;;2.30;2.10;;;;;;;-15.83;66.09;100976.16;4895819;29;20052;-79
2022/01/09 04:30:31;;;;;;;11.40;2.30;;;;;;;-15.74;65.75;100984.31;4897422;29;20089;-78
2022/01/09 04:32:56;;;;;;;2.95;2.45;;;;;;;-15.74;65.88;100979.19;4881054;29;20045;-78
2022/01/09 04:35:23;;;;;;;3.60;3.10;;;;;;;-15.72;66.19;100995.53;4896100;29;20131;-79
2022/01/09 04:37:49;;;;;;;1.95;1.80;;;;;;;-15.71;65.72;100993.84;4896069;29;20044;-82
2022/01/09 04:40:17;;;;;;;2.67;2.42;;;;;;;-15.77;65.81;100978.16;4914495;29;20436;-83
2022/01/09 04:42:48;;;;;;;2.97;2.50;;;;;;;-15.74;65.63;100991.13;4914281;29;20121;-79
2022/01/09 04:45:15;;;;;;;7.47;3.13;;;;;;;-15.75;65.76;100997.06;4900741;29;20048;-80
2022/01/09 04:47:44;;;;;;;3.47;3.15;;;;;;;-15.65;65.66;100999.28;4899441;29;20050;-78
2022/01/09 04:50:14;;;;;;;2.97;2.65;;;;;;;-15.66;65.37;101002.66;4899211;29;20051;-81
2022/01/09 04:52:41;;;;;;;2.13;1.85;;;;;;;-15.60;65.05;101005.50;4914299;29;20051;-82
2022/01/09 04:55:08;;;;;;;4.63;3.00;;;;;;;-15.56;65.32;101009.97;4900549;29;20060;-81
2022/01/09 04:57:34;;;;;;;3.20;2.60;;;;;;;-15.61;64.77;100998.59;4899100;29;20501;-79
2022/01/09 04:59:59;;;;;;;2.83;2.38;;;;;;;-15.61;65.14;101006.28;4914978;29;20100;-80
2022/01/09 05:02:26;;;;;;;2.60;2.08;;;;;;;-15.53;64.82;101010.13;4883362;29;20068;-82
2022/01/09 05:04:52;;;;;;;5.55;2.63;;;;;;;-15.53;64.89;101010.13;4917297;29;20036;-86
2022/01/09 05:07:18;;;;;;;2.55;2.30;;;;;;;-15.43;64.68;101021.72;4933684;29;20052;-81
2022/01/09 05:09:43;;;;;;;3.40;2.58;;;;;;;-14.58;73.34;101017.38;4934574;29;20131;-79
2022/01/09 05:12:09;;;;;;;4.22;2.20;;;;;;;-14.40;69.13;101016.41;4918215;29;20107;-79
2022/01/09 05:14:35;;;;;;;8.07;2.80;;;;;;;-14.31;67.72;101019.44;4887016;29;20036;-81
2022/01/09 05:17:01;;;;;;;4.60;3.38;;;;;;;-14.34;66.13;101024.41;4918849;29;20436;-82
2022/01/09 05:19:29;;;;;;;4.13;3.13;;;;;;;-14.36;64.89;101041.47;4917838;29;20048;-80
2022/01/09 05:21:55;;;;;;;3.88;2.65;;;;;;;-14.41;63.41;101037.78;4917378;29;20044;-80
2022/01/09 05:24:22;;;;;;;4.55;2.65;;;;;;;-14.52;62.94;101034.72;4917457;29;20043;-82
2022/01/09 05:26:48;;;;;;;2.92;2.50;;;;;;;-14.62;62.27;101051.41;4917978;29;20108;-84
2022/01/09 05:29:14;;;;;;;4.50;2.30;;;;;;;-14.82;61.46;101050.41;4902166;29;20040;-80
2022/01/09 05:31:40;;;;;;;3.08;2.47;;;;;;;-14.91;61.18;101055.09;4886335;29;20058;-82
2022/01/09 05:34:07;;;;;;;4.03;2.75;;;;;;;-14.98;61.46;101047.91;4902015;29;20047;-78
2022/01/09 05:36:33;;;;;;;3.40;2.90;;;;;;;-14.89;61.90;101052.59;4895184;29;20522;-80
2022/01/09 05:38:59;;;;;;;5.18;2.25;;;;;;;-14.91;61.86;101054.22;4900573;29;20063;-83
2022/01/09 05:41:25;;;;;;;4.38;2.22;;;;;;;-14.98;61.51;101058.16;4914132;29;20052;-79
2022/01/09 05:43:51;;;;;;;6.85;2.80;;;;;;;-15.18;61.75;101064.88;4914989;29;20052;-79
2022/01/09 05:46:17;;;;;;;4.88;2.72;;;;;;;-15.33;62.28;101066.66;4914892;29;20052;-81
2022/01/09 05:48:43;;;;;;;5.90;2.67;;;;;;;-15.15;63.89;101072.75;4883017;29;20071;-78
2022/01/09 05:51:09;;;;;;;2.50;2.22;;;;;;;-15.08;63.46;101072.25;4900034;29;20112;-84
2022/01/09 05:53:35;;;;;;;3.10;2.00;;;;;;;-15.12;62.46;101062.59;4914355;29;20087;-81
2022/01/09 05:56:01;;;;;;;1.92;1.80;;;;;;;-15.16;62.78;101082.91;4913878;29;20044;-83
2022/01/09 05:58:27;;;;;;;3.75;2.72;;;;;;;-15.17;62.63;101074.31;4869062;29;20520;-77
2022/01/09 06:00:53;;;;;;;4.65;3.00;;;;;;;-15.02;62.99;101087.06;4939418;29;20084;-78
2022/01/09 06:03:19;;;;;;;2.55;2.33;;;;;;;-14.98;62.47;101094.97;4902814;29;20048;-82
2022/01/09 06:05:45;;;;;;;3.75;2.65;;;;;;;-14.92;62.02;101103.81;4916989;29;20404;-80
2022/01/09 06:08:11;;;;;;;4.78;2.47;;;;;;;-14.94;62.33;101099.44;4904543;29;20131;-80
2022/01/09 06:10:37;;;;;;;2.80;2.60;;;;;;;-14.83;62.16;101114.50;4887499;29;20048;-81
2022/01/09 06:13:02;;;;;;;13.52;3.05;;;;;;;-14.85;61.43;101116.09;4898330;29;20568;-81
2022/01/09 06:15:28;;;;;;;4.28;2.55;;;;;;;-14.89;61.86;101125.38;4898432;29;20056;-79
2022/01/09 06:17:54;;;;;;;4.30;3.10;;;;;;;-14.83;61.57;101135.91;4900002;29;20409;-81
2022/01/09 06:20:20;;;;;;;6.85;4.03;;;;;;;-14.64;62.40;101137.72;4914885;29;20055;-80
2022/01/09 06:22:46;;;;;;;6.22;3.85;;;;;;;-14.70;61.55;101134.88;4883649;29;20060;-80
2022/01/09 06:25:13;;;;;;;4.22;2.97;;;;;;;-14.64;61.54;101136.84;4914310;29;20044;-81
2022/01/09 06:27:39;;;;;;;5.97;2.97;;;;;;;-14.52;61.78;101142.56;4898315;29;20519;-77
2022/01/09 06:30:05;;;;;;;4.93;3.80;;;;;;;-14.44;61.81;101141.22;4913535;29;20068;-81
2022/01/09 06:32:31;;;;;;;4.88;3.30;;;;;;;-14.16;61.49;101143.47;4888574;29;20143;-82
2022/01/09 06:34:57;;;;;;;4.68;3.03;;;;;;;-14.01;61.23;101151.91;4892374;29;20086;-88
2022/01/09 06:37:23;;;;;;;6.90;3.50;;;;;;;-13.89;61.28;101138.72;4890741;29;20051;-87
2022/01/09 06:39:49;;;;;;;7.55;2.97;;;;;;;-13.86;60.50;101135.44;4899598;29;20064;-85
2022/01/09 06:42:15;;;;;;;39.88;3.75;;;;;;;-13.89;60.51;101145.56;4898312;29;20051;-81
2022/01/09 06:44:41;;;;;;;3.63;2.70;;;;;;;-13.84;60.08;101150.13;4897814;29;20060;-81
2022/01/09 06:47:07;;;;;;;2.33;2.13;;;;;;;-13.85;59.53;101145.78;4932468;29;20042;-83
2022/01/09 06:49:35;;;;;;;3.53;2.40;;;;;;;-13.94;59.93;101139.34;4884726;29;20044;-81
2022/01/09 06:52:02;;;;;;;10.90;2.38;;;;;;;-13.84;60.27;101151.78;4917053;29;20052;-84
2022/01/09 06:54:28;;;;;;;5.82;3.38;;;;;;;-13.64;60.43;101157.88;4884481;29;20130;-84
2022/01/09 06:56:54;;;;;;;10.30;4.05;;;;;;;-13.51;60.01;101155.91;4917063;29;20136;-84
2022/01/09 06:59:20;;;;;;;10.48;4.30;;;;;;;-13.41;59.98;101164.94;4900772;29;20063;-84
2022/01/09 07:01:45;;;;;;;6.43;3.42;;;;;;;-13.28;59.80;101168.94;4899759;29;20075;-86
2022/01/09 07:04:11;;;;;;;6.10;3.92;;;;;;;-13.29;58.66;101160.34;4884984;29;20139;-85
2022/01/09 07:06:37;;;;;;;15.05;4.00;;;;;;;-13.40;59.36;101166.72;4901433;29;20412;-82
2022/01/09 07:09:04;;;;;;;4.03;2.90;;;;;;;-13.39;58.65;101177.88;4900141;29;20051;-81
2022/01/09 07:11:30;;;;;;;3.45;2.45;;;;;;;-13.25;59.41;101176.81;4899952;29;20060;-84
2022/01/09 07:13:56;;;;;;;6.65;3.80;;;;;;;-13.13;59.29;101179.88;4931200;29;20058;-82
2022/01/09 07:16:21;;;;;;;3.97;3.45;;;;;;;-13.11;58.82;101179.97;4899793;29;20435;-80
2022/01/09 07:18:47;;;;;;;4.90;3.53;;;;;;;-13.14;58.41;101170.41;4869347;29;20043;-82
2022/01/09 07:21:13;;;;;;;4.70;3.15;;;;;;;-13.12;58.33;101184.25;4932776;29;20106;-81
2022/01/09 07:23:39;;;;;;;4.07;2.13;;;;;;;-13.10;58.40;101177.47;4920266;29;20056;-79
2022/01/09 07:26:05;;;;;;;4.38;3.20;;;;;;;-13.01;58.13;101188.19;4922293;29;20130;-79
2022/01/09 07:28:31;;;;;;;13.63;4.28;;;;;;;-12.98;57.95;101188.28;4940274;29;20064;-80
2022/01/09 07:30:58;;;;;;;3.90;2.50;;;;;;;-12.97;57.93;101184.91;4898306;29;20059;-79
2022/01/09 07:33:24;;;;;;;5.65;3.22;;;;;;;-12.88;58.00;101175.84;4905536;29;20518;-84
2022/01/09 07:35:50;;;;;;;5.93;3.65;;;;;;;-12.87;57.77;101191.34;4938007;29;20060;-81
2022/01/09 07:38:16;;;;;;;7.25;3.45;;;;;;;-12.69;57.94;101187.81;4919416;29;20515;-81
2022/01/09 07:40:42;;;;;;;2.63;2.42;;;;;;;-12.59;58.37;101190.84;4901011;29;20068;-86
2022/01/09 07:43:08;;;;;;;4.90;3.00;;;;;;;-12.62;57.23;101203.59;4916695;29;20052;-88
2022/01/09 07:45:34;;;;;;;4.30;1.90;;;;;;;-12.68;57.78;101194.72;4889500;29;20050;-85
2022/01/09 07:48:00;;;;;;;4.25;2.83;;;;;;;-12.71;57.22;101203.22;4899366;29;20131;-82
2022/01/09 07:50:27;;;;;;;4.75;2.53;;;;;;;-12.56;57.46;101198.72;4884385;29;20143;-83
2022/01/09 07:52:54;;;;;;;3.80;2.92;;;;;;;-12.40;57.27;101194.19;4899914;29;20060;-84
2022/01/09 07:55:20;;;;;;;2.13;1.92;;;;;;;-12.24;56.65;101207.78;4897905;29;20044;-83
2022/01/09 07:57:47;;;;;;;5.55;2.78;;;;;;;-12.22;56.56;101194.97;4931008;29;20047;-84
2022/01/09 08:00:15;;;;;;;6.13;3.75;;;;;;;-12.15;56.64;101196.94;4914619;29;20079;-81
2022/01/09 08:02:42;;;;;;;6.60;3.50;;;;;;;-11.98;56.44;101214.81;4917982;29;20115;-82
2022/01/09 08:05:11;;;;;;;;;;;;;;;-12.09;55.99;101206.66;4919570;29;20066;-87
2022/01/09 08:07:38;;;;;;;2.28;2.05;;;;;;;-11.98;56.29;101209.66;4914933;29;19919;-83
2022/01/09 08:10:04;;;;;;;8.00;4.15;;;;;;;-11.95;56.07;101204.66;4883743;29;20048;-78
2022/01/09 08:12:30;;;;;;;5.93;3.88;;;;;;;-11.70;57.05;101211.59;4914794;29;20060;-80
2022/01/09 08:14:56;;;;;;;5.45;3.40;;;;;;;-11.69;55.79;101214.28;4916537;29;20515;-77
2022/01/09 08:17:22;;;;;;;3.03;2.55;;;;;;;-11.59;55.78;101216.38;4918783;29;20044;-80
2022/01/09 08:19:48;;;;;;;8.90;4.03;;;;;;;-11.70;54.87;101204.75;4902808;29;20079;-81
2022/01/09 08:22:14;;;;;;;9.73;3.72;;;;;;;-11.59;55.25;101223.22;4887075;29;20078;-86
2022/01/09 08:24:40;;;;;;;7.07;4.30;;;;;;;-11.61;55.61;101212.88;4872201;29;20051;-80
2022/01/09 08:27:07;;;;;;;6.82;4.30;;;;;;;-11.34;55.70;101230.22;4902826;29;20139;-80
2022/01/09 08:29:34;;;;;;;7.43;4.07;;;;;;;-11.11;55.33;101229.41;4917640;29;20044;-84
2022/01/09 08:32:01;;;;;;;8.82;4.63;;;;;;;-11.03;54.84;101229.69;4902003;29;20442;-84
2022/01/09 08:34:27;;;;;;;7.13;4.22;;;;;;;-10.88;54.67;101213.88;4918620;29;20504;-83
2022/01/09 08:36:53;;;;;;;6.40;3.90;;;;;;;-10.92;54.01;101222.34;4920065;29;20040;-80
2022/01/09 08:39:19;;;;;;;9.85;5.63;;;;;;;-10.82;54.19;101219.28;4886612;29;20070;-80
2022/01/09 08:41:46;;;;;;;14.98;5.80;;;;;;;-10.65;54.84;101223.31;4918019;29;20100;-86
2022/01/09 08:44:11;;;;;;;7.80;3.80;;;;;;;-10.50;54.55;101235.91;4918352;29;20054;-84
2022/01/09 08:46:38;;;;;;;7.35;4.18;;;;;;;-10.32;53.59;101238.25;4888635;29;20047;-83
2022/01/09 08:49:04;;;;;;;15.88;5.43;;;;;;;-10.30;53.49;101232.31;4887768;29;20056;-81
2022/01/09 08:51:31;;;;;;;11.45;5.47;;;;;;;-10.16;53.40;101242.22;4918534;29;20472;-83
2022/01/09 08:53:57;;;;;;;11.23;5.93;;;;;;;-10.05;52.77;101239.16;4902122;29;20079;-80
2022/01/09 08:56:24;;;;;;;6.57;4.00;;;;;;;-10.05;52.67;101239.16;4918270;29;20044;-82
2022/01/09 08:58:50;;;;;;;7.47;4.22;;;;;;;-9.94;52.99;101241.22;4901609;29;20488;-81
2022/01/09 09:01:17;;;;;;;5.93;4.32;;;;;;;-9.87;52.88;101238.91;4917670;29;20048;-82
2022/01/09 09:03:43;;;;;;;8.88;4.40;;;;;;;-9.76;52.48;101243.56;4867814;29;20496;-82
2022/01/09 09:06:14;;;;;;;7.22;4.63;;;;;;;-9.62;52.67;101234.53;4898590;29;20068;-83
2022/01/09 09:08:40;;;;;;;8.93;4.20;;;;;;;-9.60;52.35;101249.25;4852677;29;20044;-83
2022/01/09 09:11:06;;;;;;;9.52;5.60;;;;;;;-9.86;51.79;101255.28;4883258;29;20128;-82
2022/01/09 09:13:33;;;;;;;11.25;5.05;;;;;;;-9.86;52.65;101252.72;4867124;29;20461;-82
2022/01/09 09:15:59;;;;;;;6.60;4.40;;;;;;;-9.88;52.93;101264.72;4867773;29;20416;-82
2022/01/09 09:18:25;;;;;;;14.15;5.80;;;;;;;-9.93;52.70;101249.03;4914451;29;20086;-82
2022/01/09 09:20:51;;;;;;;6.13;3.70;;;;;;;-10.05;52.19;101243.44;4898760;29;20100;-83
2022/01/09 09:23:17;;;;;;;4.95;3.10;;;;;;;-10.14;52.43;101269.91;4883038;29;20047;-83
2022/01/09 09:25:43;;;;;;;5.82;4.18;;;;;;;-10.31;52.53;101271.03;4867252;29;20505;-82
2022/01/09 09:28:09;;;;;;;4.78;3.40;;;;;;;-10.50;53.23;101268.63;4882221;29;20509;-82
2022/01/09 09:30:35;;;;;;;9.85;3.80;;;;;;;-10.56;53.52;101269.31;4883639;29;20057;-80
2022/01/09 09:33:03;;;;;;;7.90;4.20;;;;;;;-10.78;53.43;101277.97;4867473;29;20079;-84
2022/01/09 09:35:29;;;;;;;6.88;3.25;;;;;;;-10.94;53.30;101270.47;4885451;29;20059;-86
2022/01/09 09:37:56;;;;;;;6.03;2.97;;;;;;;-11.09;53.84;101283.69;4870535;29;20100;-83
2022/01/09 09:40:21;;;;;;;6.07;3.67;;;;;;;-11.22;54.33;101269.41;4886442;29;20116;-84
2022/01/09 09:42:48;;;;;;;9.10;3.25;;;;;;;-11.22;54.32;101279.75;4870864;29;20135;-82
2022/01/09 09:45:13;;;;;;;4.72;3.22;;;;;;;-11.16;54.32;101285.16;4901206;29;20107;-80
2022/01/09 09:47:41;;;;;;;3.33;2.22;;;;;;;-11.14;54.31;101283.50;4901127;29;20500;-77
2022/01/09 09:50:10;;;;;;;6.38;3.20;;;;;;;-11.13;53.94;101285.28;4870138;29;20047;-79
2022/01/09 09:52:36;;;;;;;7.47;3.63;;;;;;;-11.09;54.17;101281.13;4869757;29;20107;-84
2022/01/09 09:55:02;;;;;;;4.05;2.85;;;;;;;-10.93;54.55;101287.72;4885140;29;20167;-84
2022/01/09 09:57:28;;;;;;;6.10;4.03;;;;;;;-10.97;53.99;101291.03;4870374;29;20040;-84
2022/01/09 10:00:12;;;;;;;7.00;3.53;;;;;;;-10.98;54.35;101285.00;4869539;29;20051;-82
2022/01/09 10:03:01;;;;;;;4.72;3.15;;;;;;;-10.94;54.23;101285.94;4901501;29;20139;-82
2022/01/09 10:05:33;;;;;;;5.68;3.15;;;;;;;-10.88;54.48;101297.41;4878191;29;20056;-80
2022/01/09 10:08:15;;;;;;;9.45;4.32;;;;;;;-10.92;54.12;101295.53;4846508;29;20647;-80
2022/01/09 10:10:41;;;;;;;7.50;3.55;;;;;;;-10.95;54.58;101294.53;4897477;29;20156;-82
2022/01/09 10:13:17;;;;;;;5.53;3.55;;;;;;;-10.69;54.79;101298.09;4865200;29;20075;-83
2022/01/09 10:15:56;;;;;;;5.20;3.65;;;;;;;-10.74;54.39;101294.47;4881231;29;20418;-84
2022/01/09 10:18:57;;;;;;;10.82;4.43;;;;;;;-10.45;54.76;101292.97;4866005;29;20044;-83
2022/01/09 10:21:24;;;;;;;10.85;5.45;;;;;;;-10.14;54.66;101295.75;4810777;29;20439;-84
2022/01/09 10:24:11;;;;;;;8.95;4.47;;;;;;;-9.96;53.49;101294.63;4843224;29;20480;-84
2022/01/09 10:26:39;;;;;;;10.65;5.32;;;;;;;-9.95;53.57;101291.22;4896827;29;20528;-83
2022/01/09 10:29:06;;;;;;;6.55;4.43;;;;;;;-9.87;53.42;101293.22;4865137;29;20044;-84
2022/01/09 10:31:41;;;;;;;10.07;4.63;;;;;;;-9.70;53.28;101301.56;4881050;29;20056;-80
2022/01/09 10:34:07;;;;;;;12.30;4.93;;;;;;;-9.65;52.97;101302.59;4880605;29;20064;-82
2022/01/09 10:36:38;;;;;;;10.73;4.35;;;;;;;-9.81;52.46;101297.75;4874184;29;20528;-83
2022/01/09 10:39:09;;;;;;;7.68;4.80;;;;;;;-9.91;53.08;101309.47;4897221;29;20465;-82
2022/01/09 10:41:50;;;;;;;13.50;6.03;;;;;;;-10.04;53.17;101307.28;4882131;29;20076;-81
2022/01/09 10:44:19;;;;;;;9.93;4.57;;;;;;;-10.25;53.75;101312.63;4892512;29;20054;-82
2022/01/09 10:46:56;;;;;;;11.82;3.75;;;;;;;-10.35;53.59;101311.41;4916082;29;20051;-81
2022/01/09 10:49:22;;;;;;;15.45;5.63;;;;;;;-10.47;53.78;101320.44;4868987;29;20048;-80
2022/01/09 10:51:49;;;;;;;7.55;4.65;;;;;;;-10.64;54.24;101307.78;4916212;29;20088;-80
2022/01/09 10:54:30;;;;;;;8.77;4.72;;;;;;;-10.61;54.37;101315.63;4915675;29;20071;-81
2022/01/09 10:57:16;;;;;;;8.77;4.38;;;;;;;-10.26;55.00;101310.00;4932013;29;20110;-81
2022/01/09 10:59:42;;;;;;;9.65;4.88;;;;;;;-9.98;53.73;101315.25;4916191;29;20074;-80
2022/01/09 11:02:10;;;;;;;14.18;5.82;;;;;;;-9.80;54.01;101315.03;4932045;29;20048;-81
2022/01/09 11:04:37;;;;;;;8.55;4.90;;;;;;;-9.57;54.12;101308.03;4900539;29;20052;-78
2022/01/09 11:07:03;;;;;;;18.00;9.07;;;;;;;-9.34;53.45;101306.16;4916522;29;20522;-80
2022/01/09 11:09:30;;;;;;;7.95;4.55;;;;;;;-9.43;52.87;101303.28;4884148;29;20488;-81
2022/01/09 11:11:56;;;;;;;6.57;3.88;;;;;;;-9.41;53.02;101299.03;4914666;29;20048;-80
2022/01/09 11:14:23;;;;;;;6.45;4.65;;;;;;;-9.36;53.00;101306.13;4883835;29;20123;-78
2022/01/09 11:16:54;;;;;;;9.00;5.03;;;;;;;-9.20;53.01;101304.91;4900107;29;20044;-81